createdAt,value
2017-10-06T00:00:48.385Z,99.50
2017-10-06T00:01:48.370Z,99.79
2017-10-06T00:02:48.360Z,99.60
2017-10-06T00:03:48.349Z,98.83
2017-10-06T00:04:48.340Z,99.41
2017-10-06T00:05:48.329Z,99.31
2017-10-06T00:06:48.316Z,99.41
2017-10-06T00:07:48.308Z,99.22
2017-10-06T00:08:48.294Z,99.41
2017-10-06T00:09:48.284Z,99.69
2017-10-06T00:10:48.274Z,99.50
2017-10-06T00:11:48.264Z,99.41
2017-10-06T00:12:48.251Z,99.41
2017-10-06T00:13:48.241Z,98.46
2017-10-06T00:14:48.232Z,99.79
2017-10-06T00:15:48.227Z,99.41
2017-10-06T00:16:48.210Z,99.31
2017-10-06T00:17:48.199Z,99.31
2017-10-06T00:18:48.190Z,99.60
2017-10-06T00:19:48.180Z,99.31
2017-10-06T00:20:48.169Z,99.60
2017-10-06T00:21:48.156Z,99.79
2017-10-06T00:22:48.154Z,99.22
2017-10-06T00:23:48.136Z,99.31
2017-10-06T00:24:48.128Z,99.60
2017-10-06T00:25:48.113Z,99.22
2017-10-06T00:26:48.102Z,99.31
2017-10-06T00:27:48.095Z,99.22
2017-10-06T00:28:48.082Z,98.83
2017-10-06T00:29:48.071Z,99.41
2017-10-06T00:30:48.060Z,99.02
2017-10-06T00:31:48.049Z,99.60
2017-10-06T00:32:48.038Z,98.93
2017-10-06T00:33:48.032Z,99.12
2017-10-06T00:34:48.017Z,99.12
2017-10-06T00:35:48.006Z,98.17
2017-10-06T00:36:47.999Z,98.83
2017-10-06T00:37:47.984Z,98.74
2017-10-06T00:38:47.974Z,99.12
2017-10-06T00:39:47.962Z,98.74
2017-10-06T00:40:47.952Z,99.12
2017-10-06T00:41:47.943Z,99.31
2017-10-06T00:42:47.933Z,99.02
2017-10-06T00:43:47.924Z,99.22
2017-10-06T00:44:47.909Z,99.02
2017-10-06T00:45:47.903Z,99.12
2017-10-06T00:46:47.889Z,99.60
2017-10-06T00:47:47.878Z,98.65
2017-10-06T00:48:47.869Z,98.74
2017-10-06T00:49:47.861Z,99.02
2017-10-06T00:50:47.847Z,98.83
2017-10-06T00:51:47.834Z,99.12
2017-10-06T00:52:47.823Z,98.55
2017-10-06T00:53:47.814Z,98.83
2017-10-06T00:54:47.804Z,98.83
2017-10-06T00:55:47.792Z,98.83
2017-10-06T00:56:47.783Z,98.83
2017-10-06T00:57:47.774Z,99.22
2017-10-06T00:58:47.760Z,99.02
2017-10-06T00:59:47.753Z,98.65
2017-10-06T01:00:47.742Z,98.65
2017-10-06T01:01:47.727Z,98.83
2017-10-06T01:02:47.742Z,98.46
2017-10-06T01:03:47.709Z,98.74
2017-10-06T01:04:47.696Z,99.02
2017-10-06T01:05:47.690Z,99.31
2017-10-06T01:06:47.675Z,98.36
2017-10-06T01:07:47.666Z,98.83
2017-10-06T01:08:47.652Z,98.55
2017-10-06T01:09:47.641Z,99.22
2017-10-06T01:10:47.635Z,98.83
2017-10-06T01:11:47.622Z,99.79
2017-10-06T01:12:47.609Z,99.22
2017-10-06T01:13:47.603Z,99.02
2017-10-06T01:14:47.590Z,99.60
2017-10-06T01:15:47.583Z,99.41
2017-10-06T01:16:47.568Z,99.50
2017-10-06T01:17:47.557Z,99.31
2017-10-06T01:18:47.546Z,99.41
2017-10-06T01:19:47.540Z,99.12
2017-10-06T01:20:47.525Z,99.79
2017-10-06T01:21:47.518Z,99.41
2017-10-06T01:22:47.518Z,99.69
2017-10-06T01:23:47.500Z,99.12
2017-10-06T01:24:47.483Z,99.31
2017-10-06T01:25:47.497Z,98.65
2017-10-06T01:26:47.461Z,99.60
2017-10-06T01:27:47.453Z,99.60
2017-10-06T01:28:47.442Z,99.02
2017-10-06T01:29:47.429Z,99.31
2017-10-06T01:30:47.421Z,99.02
2017-10-06T01:31:47.412Z,99.12
2017-10-06T01:32:47.397Z,99.31
2017-10-06T01:33:47.388Z,99.31
2017-10-06T01:34:47.382Z,99.02
2017-10-06T01:35:47.367Z,98.93
2017-10-06T01:36:47.356Z,99.12
2017-10-06T01:37:47.345Z,99.60
2017-10-06T01:38:47.335Z,99.69
2017-10-06T01:39:47.331Z,99.69
2017-10-06T01:40:47.317Z,99.50
2017-10-06T01:41:47.303Z,99.69
2017-10-06T01:42:47.297Z,99.41
2017-10-06T01:43:47.285Z,99.60
2017-10-06T01:44:47.273Z,99.69
2017-10-06T01:45:47.264Z,99.69
2017-10-06T01:46:47.253Z,99.98
2017-10-06T01:47:47.241Z,99.69
2017-10-06T01:48:47.230Z,99.69
2017-10-06T01:49:47.219Z,99.79
2017-10-06T01:50:47.208Z,99.41
2017-10-06T01:51:47.198Z,99.99
2017-10-06T01:52:47.188Z,99.99
2017-10-06T01:53:47.177Z,99.99
2017-10-06T01:54:47.167Z,99.99
2017-10-06T01:55:47.156Z,99.99
2017-10-06T01:56:47.145Z,99.99
2017-10-06T01:57:47.138Z,99.99
2017-10-06T01:58:47.125Z,99.99
2017-10-06T01:59:47.118Z,99.99
2017-10-06T02:00:47.104Z,99.99
2017-10-06T02:01:47.096Z,99.99
2017-10-06T02:02:47.083Z,99.99
2017-10-06T02:03:47.075Z,99.99
2017-10-06T02:04:47.061Z,99.99
2017-10-06T02:05:47.051Z,99.99
2017-10-06T02:06:47.040Z,99.99
2017-10-06T02:07:47.030Z,99.99
2017-10-06T02:08:47.020Z,99.99
2017-10-06T02:09:47.009Z,99.99
2017-10-06T02:10:46.999Z,99.99
2017-10-06T02:11:46.992Z,99.99
2017-10-06T02:12:46.977Z,99.99
2017-10-06T02:13:46.966Z,99.99
2017-10-06T02:14:46.957Z,99.88
2017-10-06T02:15:46.947Z,99.99
2017-10-06T02:16:46.934Z,99.99
2017-10-06T02:17:46.924Z,99.99
2017-10-06T02:18:46.914Z,99.99
2017-10-06T02:19:46.904Z,99.99
2017-10-06T02:20:46.893Z,99.99
2017-10-06T02:21:46.882Z,99.99
2017-10-06T02:22:46.872Z,99.99
2017-10-06T02:23:46.862Z,99.99
2017-10-06T02:24:46.853Z,99.99
2017-10-06T02:25:46.840Z,99.99
2017-10-06T02:26:46.831Z,99.99
2017-10-06T02:27:46.819Z,99.99
2017-10-06T02:28:46.812Z,99.99
2017-10-06T02:29:46.797Z,99.99
2017-10-06T02:30:46.789Z,99.99
2017-10-06T02:31:46.778Z,99.99
2017-10-06T02:32:46.766Z,99.99
2017-10-06T02:33:46.756Z,99.99
2017-10-06T02:34:46.744Z,99.99
2017-10-06T02:35:46.741Z,99.99
2017-10-06T02:36:46.740Z,99.99
2017-10-06T02:37:46.749Z,99.99
2017-10-06T02:38:46.703Z,99.99
2017-10-06T02:39:46.692Z,99.99
2017-10-06T02:40:46.680Z,99.99
2017-10-06T02:41:46.676Z,99.99
2017-10-06T02:42:46.659Z,99.99
2017-10-06T02:43:46.649Z,99.99
2017-10-06T02:44:46.644Z,99.99
2017-10-06T02:45:46.629Z,99.99
2017-10-06T02:46:46.645Z,99.99
2017-10-06T02:47:46.615Z,99.99
2017-10-06T02:48:46.606Z,99.99
2017-10-06T02:49:46.584Z,99.99
2017-10-06T02:50:46.580Z,99.99
2017-10-06T02:51:46.565Z,99.99
2017-10-06T02:52:46.552Z,99.99
2017-10-06T02:53:46.543Z,99.99
2017-10-06T02:54:46.533Z,99.99
2017-10-06T02:55:46.530Z,99.99
2017-10-06T02:56:46.514Z,99.99
2017-10-06T02:57:46.508Z,99.99
2017-10-06T02:58:46.493Z,99.99
2017-10-06T02:59:46.479Z,99.99
2017-10-06T03:00:46.470Z,99.99
2017-10-06T03:01:46.459Z,99.99
2017-10-06T03:02:46.449Z,99.99
2017-10-06T03:03:46.441Z,99.99
2017-10-06T03:04:46.433Z,99.99
2017-10-06T03:05:46.417Z,99.99
2017-10-06T03:06:46.407Z,99.99
2017-10-06T03:07:46.396Z,99.99
2017-10-06T03:08:46.388Z,99.99
2017-10-06T03:09:46.376Z,99.99
2017-10-06T03:10:46.365Z,99.99
2017-10-06T03:11:46.355Z,99.99
2017-10-06T03:12:46.342Z,99.99
2017-10-06T03:13:46.333Z,99.99
2017-10-06T03:14:46.323Z,99.99
2017-10-06T03:15:46.312Z,99.99
2017-10-06T03:16:46.300Z,99.99
2017-10-06T03:17:46.291Z,99.99
2017-10-06T03:18:46.281Z,99.99
2017-10-06T03:19:46.272Z,99.99
2017-10-06T03:20:46.259Z,99.99
2017-10-06T03:21:46.249Z,99.99
2017-10-06T03:22:46.238Z,99.99
2017-10-06T03:23:46.230Z,99.99
2017-10-06T03:24:46.221Z,99.99
2017-10-06T03:25:46.209Z,99.99
2017-10-06T03:26:46.195Z,99.99
2017-10-06T03:27:46.188Z,99.99
2017-10-06T03:28:46.185Z,99.99
2017-10-06T03:29:46.167Z,99.99
2017-10-06T03:30:46.155Z,99.99
2017-10-06T03:31:46.143Z,99.99
2017-10-06T03:32:46.135Z,99.99
2017-10-06T03:33:46.122Z,99.99
2017-10-06T03:34:46.113Z,99.99
2017-10-06T03:35:46.102Z,99.99
2017-10-06T03:36:46.091Z,99.99
2017-10-06T03:37:46.082Z,99.99
2017-10-06T03:38:46.104Z,99.99
2017-10-06T03:39:46.059Z,99.99
2017-10-06T03:40:46.048Z,99.99
2017-10-06T03:41:46.038Z,99.99
2017-10-06T03:42:46.029Z,99.99
2017-10-06T03:43:46.021Z,99.99
2017-10-06T03:44:46.006Z,99.99
2017-10-06T03:45:45.996Z,99.99
2017-10-06T03:46:45.986Z,99.99
2017-10-06T03:47:45.974Z,99.99
2017-10-06T03:48:45.964Z,99.99
2017-10-06T03:49:45.952Z,99.99
2017-10-06T03:50:45.946Z,99.99
2017-10-06T03:51:45.932Z,99.99
2017-10-06T03:52:45.939Z,99.99
2017-10-06T03:53:45.910Z,99.99
2017-10-06T03:54:45.900Z,99.99
2017-10-06T03:55:45.888Z,99.99
2017-10-06T03:56:45.877Z,99.99
2017-10-06T03:57:45.866Z,99.99
2017-10-06T03:58:45.857Z,99.99
2017-10-06T03:59:45.845Z,99.99
2017-10-06T04:00:45.834Z,99.99
2017-10-06T04:01:45.823Z,99.99
2017-10-06T04:02:45.814Z,99.99
2017-10-06T04:03:45.801Z,99.99
2017-10-06T04:04:45.792Z,99.99
2017-10-06T04:05:45.780Z,99.99
2017-10-06T04:06:45.770Z,99.99
2017-10-06T04:07:45.760Z,99.99
2017-10-06T04:08:45.749Z,99.99
2017-10-06T04:09:45.738Z,99.99
2017-10-06T04:10:45.728Z,99.99
2017-10-06T04:11:45.722Z,99.99
2017-10-06T04:12:45.708Z,99.99
2017-10-06T04:13:45.694Z,99.99
2017-10-06T04:14:45.682Z,99.99
2017-10-06T04:15:45.673Z,99.99
2017-10-06T04:16:45.661Z,99.99
2017-10-06T04:17:45.649Z,99.99
2017-10-06T04:18:45.646Z,99.99
2017-10-06T04:19:45.631Z,99.99
2017-10-06T04:20:45.618Z,99.99
2017-10-06T04:21:45.607Z,99.99
2017-10-06T04:22:45.597Z,99.99
2017-10-06T04:23:45.586Z,99.99
2017-10-06T04:24:45.574Z,99.99
2017-10-06T04:25:45.566Z,99.99
2017-10-06T04:26:45.553Z,99.99
2017-10-06T04:27:45.542Z,99.99
2017-10-06T04:28:45.554Z,99.99
2017-10-06T04:29:45.520Z,99.99
2017-10-06T04:30:45.510Z,99.99
2017-10-06T04:31:45.501Z,99.99
2017-10-06T04:32:45.487Z,99.99
2017-10-06T04:33:45.476Z,99.99
2017-10-06T04:34:45.464Z,99.99
2017-10-06T04:35:45.459Z,99.99
2017-10-06T04:36:45.443Z,99.99
2017-10-06T04:37:45.432Z,99.99
2017-10-06T04:38:45.420Z,99.99
2017-10-06T04:39:45.410Z,99.99
2017-10-06T04:40:45.404Z,99.99
2017-10-06T04:41:45.388Z,99.99
2017-10-06T04:42:45.376Z,99.99
2017-10-06T04:43:45.367Z,99.99
2017-10-06T04:44:45.355Z,99.99
2017-10-06T04:45:45.343Z,99.99
2017-10-06T04:46:45.333Z,99.99
2017-10-06T04:47:45.323Z,99.99
2017-10-06T04:48:45.310Z,99.99
2017-10-06T04:49:45.300Z,99.99
2017-10-06T04:50:45.296Z,99.99
2017-10-06T04:51:45.277Z,99.99
2017-10-06T04:52:45.267Z,99.99
2017-10-06T04:53:45.257Z,99.99
2017-10-06T04:54:45.248Z,99.99
2017-10-06T04:55:45.232Z,99.99
2017-10-06T04:56:45.223Z,99.99
2017-10-06T04:57:45.211Z,99.99
2017-10-06T04:58:45.207Z,99.99
2017-10-06T04:59:45.188Z,99.99
2017-10-06T05:00:45.179Z,99.99
2017-10-06T05:01:45.167Z,99.99
2017-10-06T05:02:45.157Z,99.99
2017-10-06T05:03:45.146Z,99.99
2017-10-06T05:04:45.136Z,99.99
2017-10-06T05:05:45.123Z,99.99
2017-10-06T05:06:45.112Z,99.99
2017-10-06T05:07:45.102Z,99.99
2017-10-06T05:08:45.091Z,99.99
2017-10-06T05:09:45.079Z,99.99
2017-10-06T05:10:45.069Z,99.99
2017-10-06T05:11:45.058Z,99.99
2017-10-06T05:12:45.048Z,99.99
2017-10-06T05:13:45.075Z,99.99
2017-10-06T05:14:45.028Z,99.99
2017-10-06T05:15:45.013Z,99.99
2017-10-06T05:16:45.003Z,99.99
2017-10-06T05:17:44.990Z,99.99
2017-10-06T05:18:44.981Z,99.99
2017-10-06T05:19:44.969Z,99.99
2017-10-06T05:20:45.003Z,99.99
2017-10-06T05:21:44.947Z,99.99
2017-10-06T05:22:44.936Z,99.99
2017-10-06T05:23:44.943Z,99.99
2017-10-06T05:24:44.934Z,99.99
2017-10-06T05:25:44.903Z,99.99
2017-10-06T05:26:44.891Z,99.99
2017-10-06T05:27:44.882Z,99.99
2017-10-06T05:28:44.870Z,99.99
2017-10-06T05:29:44.860Z,99.99
2017-10-06T05:30:44.847Z,99.99
2017-10-06T05:31:44.841Z,99.99
2017-10-06T05:32:44.827Z,99.99
2017-10-06T05:33:44.816Z,99.99
2017-10-06T05:34:44.803Z,99.99
2017-10-06T05:35:44.798Z,99.99
2017-10-06T05:36:44.780Z,99.99
2017-10-06T05:37:44.772Z,99.99
2017-10-06T05:38:44.759Z,99.99
2017-10-06T05:39:44.748Z,99.99
2017-10-06T05:40:44.746Z,99.99
2017-10-06T05:41:44.726Z,99.99
2017-10-06T05:42:44.723Z,99.99
2017-10-06T05:43:44.705Z,99.99
2017-10-06T05:44:44.696Z,99.99
2017-10-06T05:45:44.682Z,99.99
2017-10-06T05:46:44.673Z,99.99
2017-10-06T05:47:44.661Z,99.99
2017-10-06T05:48:44.650Z,99.99
2017-10-06T05:49:44.640Z,99.99
2017-10-06T05:50:44.629Z,99.99
2017-10-06T05:51:44.617Z,99.99
2017-10-06T05:52:44.608Z,99.99
2017-10-06T05:53:44.595Z,99.99
2017-10-06T05:54:44.584Z,99.99
2017-10-06T05:55:44.574Z,99.99
2017-10-06T05:56:44.566Z,99.99
2017-10-06T05:57:44.553Z,99.99
2017-10-06T05:58:44.546Z,99.99
2017-10-06T05:59:44.534Z,99.99
2017-10-06T06:00:44.519Z,99.99
2017-10-06T06:01:44.511Z,99.99
2017-10-06T06:02:44.501Z,99.99
2017-10-06T06:03:44.489Z,99.99
2017-10-06T06:04:44.475Z,99.99
2017-10-06T06:05:44.465Z,99.99
2017-10-06T06:06:44.457Z,99.99
2017-10-06T06:07:44.449Z,99.99
2017-10-06T06:08:44.431Z,99.99
2017-10-06T06:09:44.426Z,99.99
2017-10-06T06:10:44.412Z,99.99
2017-10-06T06:11:44.400Z,99.99
2017-10-06T06:12:44.390Z,99.99
2017-10-06T06:13:44.378Z,99.99
2017-10-06T06:14:44.367Z,99.99
2017-10-06T06:15:44.358Z,99.99
2017-10-06T06:16:44.346Z,99.99
2017-10-06T06:17:44.339Z,99.99
2017-10-06T06:18:44.324Z,99.99
2017-10-06T06:19:44.317Z,99.99
2017-10-06T06:20:44.301Z,99.99
2017-10-06T06:21:44.292Z,99.99
2017-10-06T06:22:44.282Z,99.99
2017-10-06T06:23:44.272Z,99.99
2017-10-06T06:24:44.259Z,99.99
2017-10-06T06:25:44.248Z,99.99
2017-10-06T06:26:44.239Z,99.99
2017-10-06T06:27:44.235Z,99.99
2017-10-06T06:28:44.216Z,99.99
2017-10-06T06:29:44.206Z,99.99
2017-10-06T06:30:44.196Z,99.99
2017-10-06T06:31:44.185Z,99.99
2017-10-06T06:32:44.179Z,99.99
2017-10-06T06:33:44.164Z,99.99
2017-10-06T06:34:44.154Z,99.99
2017-10-06T06:35:44.149Z,99.99
2017-10-06T06:36:44.133Z,99.99
2017-10-06T06:37:44.123Z,99.99
2017-10-06T06:38:44.110Z,99.99
2017-10-06T06:39:44.103Z,99.99
2017-10-06T06:40:44.094Z,99.99
2017-10-06T06:41:44.081Z,99.99
2017-10-06T06:42:44.070Z,99.88
2017-10-06T06:43:44.062Z,99.99
2017-10-06T06:44:44.049Z,99.99
2017-10-06T06:45:44.039Z,99.99
2017-10-06T06:46:44.028Z,99.99
2017-10-06T06:47:44.018Z,99.99
2017-10-06T06:48:44.007Z,99.99
2017-10-06T06:49:44.001Z,99.99
2017-10-06T06:50:43.985Z,99.99
2017-10-06T06:51:43.976Z,99.99
2017-10-06T06:52:43.968Z,99.99
2017-10-06T06:53:43.998Z,99.99
2017-10-06T06:54:43.946Z,99.99
2017-10-06T06:55:43.946Z,99.99
2017-10-06T06:56:43.924Z,99.99
2017-10-06T06:57:43.915Z,99.99
2017-10-06T06:58:43.903Z,99.99
2017-10-06T06:59:43.893Z,99.99
2017-10-06T07:00:43.889Z,99.99
2017-10-06T07:01:43.873Z,99.93
2017-10-06T07:02:43.862Z,99.99
2017-10-06T07:03:43.852Z,99.36
2017-10-06T07:04:43.841Z,99.55
2017-10-06T07:05:43.832Z,99.65
2017-10-06T07:06:43.819Z,99.65
2017-10-06T07:07:43.811Z,99.46
2017-10-06T07:08:43.799Z,99.74
2017-10-06T07:09:43.789Z,99.99
2017-10-06T07:10:43.779Z,99.99
2017-10-06T07:11:43.772Z,99.74
2017-10-06T07:12:43.759Z,99.99
2017-10-06T07:13:43.752Z,99.99
2017-10-06T07:14:43.739Z,99.99
2017-10-06T07:15:43.731Z,99.99
2017-10-06T07:16:43.718Z,99.99
2017-10-06T07:17:43.708Z,99.46
2017-10-06T07:18:43.698Z,99.74
2017-10-06T07:19:43.688Z,99.99
2017-10-06T07:20:43.680Z,99.98
2017-10-06T07:21:43.668Z,99.36
2017-10-06T07:22:43.659Z,99.60
2017-10-06T07:23:43.648Z,99.13
2017-10-06T07:24:43.637Z,99.69
2017-10-06T07:25:43.642Z,99.79
2017-10-06T07:26:43.621Z,98.74
2017-10-06T07:27:43.611Z,99.51
2017-10-06T07:28:43.596Z,99.60
2017-10-06T07:29:43.589Z,99.51
2017-10-06T07:30:43.578Z,99.69
2017-10-06T07:31:43.568Z,98.65
2017-10-06T07:32:43.558Z,99.89
2017-10-06T07:33:43.550Z,99.79
2017-10-06T07:34:43.538Z,99.32
2017-10-06T07:35:43.529Z,99.60
2017-10-06T07:36:43.519Z,99.32
2017-10-06T07:37:43.509Z,99.69
2017-10-06T07:38:43.498Z,99.69
2017-10-06T07:39:43.498Z,99.69
2017-10-06T07:40:43.478Z,99.22
2017-10-06T07:41:43.470Z,99.79
2017-10-06T07:42:43.460Z,99.89
2017-10-06T07:43:43.449Z,99.69
2017-10-06T07:44:43.440Z,99.13
2017-10-06T07:45:43.430Z,99.41
2017-10-06T07:46:43.419Z,98.94
2017-10-06T07:47:43.414Z,99.18
2017-10-06T07:48:43.399Z,98.51
2017-10-06T07:49:43.394Z,98.99
2017-10-06T07:50:43.380Z,98.13
2017-10-06T07:51:43.372Z,97.65
2017-10-06T07:52:43.363Z,97.27
2017-10-06T07:53:43.354Z,97.17
2017-10-06T07:54:43.342Z,96.60
2017-10-06T07:55:43.334Z,96.32
2017-10-06T07:56:43.324Z,96.32
2017-10-06T07:57:43.314Z,95.94
2017-10-06T07:58:43.305Z,95.22
2017-10-06T07:59:43.294Z,96.56
2017-10-06T08:00:43.286Z,95.61
2017-10-06T08:01:43.278Z,95.32
2017-10-06T08:02:43.266Z,95.51
2017-10-06T08:03:43.263Z,95.84
2017-10-06T08:04:43.249Z,94.89
2017-10-06T08:05:43.239Z,95.32
2017-10-06T08:06:43.231Z,96.08
2017-10-06T08:07:43.220Z,95.84
2017-10-06T08:08:43.211Z,95.12
2017-10-06T08:09:43.202Z,95.46
2017-10-06T08:10:43.196Z,94.89
2017-10-06T08:11:43.187Z,95.51
2017-10-06T08:12:43.175Z,95.79
2017-10-06T08:13:43.165Z,96.03
2017-10-06T08:14:43.156Z,96.03
2017-10-06T08:15:43.148Z,96.80
2017-10-06T08:16:43.172Z,96.60
2017-10-06T08:17:43.141Z,97.08
2017-10-06T08:18:43.122Z,98.03
2017-10-06T08:19:43.112Z,98.41
2017-10-06T08:20:43.107Z,98.79
2017-10-06T08:21:43.094Z,99.55
2017-10-06T08:22:43.083Z,99.99
2017-10-06T08:23:43.074Z,99.99
2017-10-06T08:24:43.063Z,99.99
2017-10-06T08:25:43.054Z,99.99
2017-10-06T08:26:43.045Z,99.99
2017-10-06T08:27:43.035Z,99.99
2017-10-06T08:28:43.025Z,99.99
2017-10-06T08:29:43.017Z,99.99
2017-10-06T08:30:43.009Z,99.99
2017-10-06T08:31:42.997Z,99.99
2017-10-06T08:32:42.987Z,99.99
2017-10-06T08:33:42.980Z,99.99
2017-10-06T08:34:42.969Z,99.99
2017-10-06T08:35:42.959Z,99.99
2017-10-06T08:36:42.949Z,99.99
2017-10-06T08:37:42.941Z,99.99
2017-10-06T08:38:42.932Z,99.99
2017-10-06T08:39:42.922Z,99.99
2017-10-06T08:40:42.911Z,99.99
2017-10-06T08:41:42.907Z,99.99
2017-10-06T08:42:42.895Z,99.99
2017-10-06T08:43:42.884Z,99.99
2017-10-06T08:44:42.874Z,99.99
2017-10-06T08:45:42.866Z,99.99
2017-10-06T08:46:42.866Z,99.99
2017-10-06T08:47:42.847Z,99.99
2017-10-06T08:48:42.836Z,99.75
2017-10-06T08:49:42.828Z,99.18
2017-10-06T08:50:42.820Z,99.46
2017-10-06T08:51:42.813Z,99.99
2017-10-06T08:52:42.801Z,99.37
2017-10-06T08:53:42.792Z,99.75
2017-10-06T08:54:42.783Z,99.55
2017-10-06T08:55:42.777Z,99.99
2017-10-06T08:56:42.764Z,99.99
2017-10-06T08:57:42.754Z,99.99
2017-10-06T08:58:42.745Z,99.99
2017-10-06T08:59:42.735Z,99.99
2017-10-06T09:00:42.726Z,99.80
2017-10-06T09:01:42.716Z,99.99
2017-10-06T09:02:42.711Z,99.99
2017-10-06T09:03:42.698Z,99.99
2017-10-06T09:04:42.688Z,99.99
2017-10-06T09:05:42.680Z,99.51
2017-10-06T09:06:42.672Z,99.99
2017-10-06T09:07:42.662Z,99.70
2017-10-06T09:08:42.656Z,99.70
2017-10-06T09:09:42.643Z,99.89
2017-10-06T09:10:42.634Z,99.13
2017-10-06T09:11:42.624Z,99.22
2017-10-06T09:12:42.614Z,99.99
2017-10-06T09:13:42.607Z,99.04
2017-10-06T09:14:42.599Z,99.80
2017-10-06T09:15:42.588Z,99.99
2017-10-06T09:16:42.579Z,99.84
2017-10-06T09:17:42.569Z,99.37
2017-10-06T09:18:42.559Z,99.99
2017-10-06T09:19:42.550Z,99.99
2017-10-06T09:20:42.541Z,99.99
2017-10-06T09:21:42.531Z,99.99
2017-10-06T09:22:42.522Z,99.99
2017-10-06T09:23:42.513Z,99.99
2017-10-06T09:24:42.509Z,99.99
2017-10-06T09:25:42.494Z,99.99
2017-10-06T09:26:42.486Z,99.99
2017-10-06T09:27:42.480Z,99.99
2017-10-06T09:28:42.467Z,99.99
2017-10-06T09:29:42.460Z,99.99
2017-10-06T09:30:42.446Z,99.99
2017-10-06T09:31:42.441Z,99.99
2017-10-06T09:32:42.429Z,99.99
2017-10-06T09:33:42.420Z,99.99
2017-10-06T09:34:42.410Z,99.99
2017-10-06T09:35:42.402Z,99.99
2017-10-06T09:36:42.390Z,99.99
2017-10-06T09:37:42.381Z,99.99
2017-10-06T09:38:42.372Z,99.99
2017-10-06T09:39:42.361Z,99.99
2017-10-06T09:40:42.351Z,99.99
2017-10-06T09:41:42.343Z,99.99
2017-10-06T09:42:42.332Z,99.99
2017-10-06T09:43:42.323Z,99.99
2017-10-06T09:44:42.314Z,99.99
2017-10-06T09:45:42.304Z,99.99
2017-10-06T09:46:42.293Z,99.99
2017-10-06T09:47:42.286Z,99.99
2017-10-06T09:48:42.273Z,99.99
2017-10-06T09:49:42.263Z,99.99
2017-10-06T09:50:42.255Z,99.99
2017-10-06T09:51:42.244Z,99.99
2017-10-06T09:52:42.235Z,99.99
2017-10-06T09:53:42.227Z,99.99
2017-10-06T09:54:42.216Z,99.99
2017-10-06T09:55:42.206Z,99.99
2017-10-06T09:56:42.195Z,99.99
2017-10-06T09:57:42.187Z,99.99
2017-10-06T09:58:42.181Z,99.99
2017-10-06T09:59:42.169Z,99.99
2017-10-06T10:00:42.157Z,99.99
2017-10-06T10:01:42.156Z,99.99
2017-10-06T10:02:42.137Z,99.99
2017-10-06T10:03:42.129Z,99.99
2017-10-06T10:04:42.118Z,99.99
2017-10-06T10:05:42.109Z,99.99
2017-10-06T10:06:42.099Z,99.99
2017-10-06T10:07:42.090Z,99.99
2017-10-06T10:08:42.079Z,99.99
2017-10-06T10:09:42.071Z,99.99
2017-10-06T10:10:42.060Z,99.99
2017-10-06T10:11:42.051Z,99.99
2017-10-06T10:12:42.042Z,99.99
2017-10-06T10:13:42.032Z,99.99
2017-10-06T10:14:42.023Z,99.99
2017-10-06T10:15:42.015Z,99.99
2017-10-06T10:16:42.003Z,99.99
2017-10-06T10:17:41.993Z,99.99
2017-10-06T10:18:41.984Z,99.99
2017-10-06T10:19:41.976Z,99.99
2017-10-06T10:20:41.995Z,99.99
2017-10-06T10:21:41.957Z,99.99
2017-10-06T10:22:41.945Z,99.99
2017-10-06T10:23:41.936Z,99.99
2017-10-06T10:24:41.928Z,99.99
2017-10-06T10:25:41.932Z,99.99
2017-10-06T10:26:41.909Z,99.99
2017-10-06T10:27:41.897Z,99.99
2017-10-06T10:28:41.887Z,99.99
2017-10-06T10:29:41.877Z,99.99
2017-10-06T10:30:41.868Z,99.99
2017-10-06T10:31:41.859Z,99.99
2017-10-06T10:32:41.854Z,99.99
2017-10-06T10:33:41.839Z,99.99
2017-10-06T10:34:41.830Z,99.99
2017-10-06T10:35:41.820Z,99.99
2017-10-06T10:36:41.813Z,99.56
2017-10-06T10:37:41.808Z,99.85
2017-10-06T10:38:41.793Z,99.37
2017-10-06T10:39:41.786Z,99.99
2017-10-06T10:40:41.774Z,99.99
2017-10-06T10:41:41.765Z,99.95
2017-10-06T10:42:41.760Z,99.08
2017-10-06T10:43:41.747Z,99.46
2017-10-06T10:44:41.738Z,99.61
2017-10-06T10:45:41.736Z,99.90
2017-10-06T10:46:41.723Z,98.37
2017-10-06T10:47:41.713Z,99.13
2017-10-06T10:48:41.705Z,98.56
2017-10-06T10:49:41.693Z,98.90
2017-10-06T10:50:41.685Z,97.47
2017-10-06T10:51:41.681Z,96.80
2017-10-06T10:52:41.667Z,97.08
2017-10-06T10:53:41.659Z,98.13
2017-10-06T10:54:41.654Z,97.75
2017-10-06T10:55:41.645Z,97.47
2017-10-06T10:56:41.713Z,98.61
2017-10-06T10:57:41.627Z,98.08
2017-10-06T10:58:41.626Z,98.27
2017-10-06T10:59:41.612Z,99.42
2017-10-06T11:00:41.601Z,98.94
2017-10-06T11:01:41.596Z,99.90
2017-10-06T11:02:41.677Z,98.94
2017-10-06T11:03:41.577Z,98.37
2017-10-06T11:04:41.569Z,98.99
2017-10-06T11:05:41.561Z,99.37
2017-10-06T11:06:41.557Z,98.52
2017-10-06T11:07:41.545Z,98.23
2017-10-06T11:08:41.703Z,97.75
2017-10-06T11:09:41.529Z,97.52
2017-10-06T11:10:41.522Z,96.37
2017-10-06T11:11:41.514Z,97.32
2017-10-06T11:12:41.504Z,95.98
2017-10-06T11:13:41.501Z,95.70
2017-10-06T11:14:41.493Z,96.66
2017-10-06T11:15:41.481Z,96.75
2017-10-06T11:16:41.474Z,95.22
2017-10-06T11:17:41.467Z,94.46
2017-10-06T11:18:41.463Z,94.55
2017-10-06T11:19:41.454Z,95.22
2017-10-06T11:20:41.445Z,95.51
2017-10-06T11:21:41.437Z,96.37
2017-10-06T11:22:41.429Z,95.36
2017-10-06T11:23:41.422Z,97.27
2017-10-06T11:24:41.415Z,96.94
2017-10-06T11:25:41.409Z,95.79
2017-10-06T11:26:41.401Z,96.27
2017-10-06T11:27:41.396Z,97.47
2017-10-06T11:28:41.386Z,96.51
2017-10-06T11:29:41.378Z,97.27
2017-10-06T11:30:41.370Z,96.13
2017-10-06T11:31:41.363Z,96.32
2017-10-06T11:32:41.358Z,95.65
2017-10-06T11:33:41.348Z,95.65
2017-10-06T11:34:41.340Z,95.12
2017-10-06T11:35:41.332Z,96.56
2017-10-06T11:36:41.324Z,96.80
2017-10-06T11:37:41.320Z,96.13
2017-10-06T11:38:41.308Z,96.37
2017-10-06T11:39:41.305Z,95.32
2017-10-06T11:40:41.294Z,96.32
2017-10-06T11:41:41.291Z,93.55
2017-10-06T11:42:41.279Z,94.70
2017-10-06T11:43:41.274Z,96.03
2017-10-06T11:44:41.267Z,96.61
2017-10-06T11:45:41.267Z,96.80
2017-10-06T11:46:41.251Z,97.47
2017-10-06T11:47:41.247Z,98.75
2017-10-06T11:48:41.237Z,98.57
2017-10-06T11:49:41.230Z,98.18
2017-10-06T11:50:41.223Z,97.32
2017-10-06T11:51:41.215Z,97.52
2017-10-06T11:52:41.208Z,97.13
2017-10-06T11:53:41.202Z,96.66
2017-10-06T11:54:41.195Z,96.08
2017-10-06T11:55:41.187Z,96.17
2017-10-06T11:56:41.180Z,97.08
2017-10-06T11:57:41.173Z,95.51
2017-10-06T11:58:41.167Z,96.66
2017-10-06T11:59:41.158Z,95.65
2017-10-06T12:00:41.151Z,94.65
2017-10-06T12:01:41.142Z,94.84
2017-10-06T12:02:41.135Z,95.22
2017-10-06T12:03:41.130Z,95.79
2017-10-06T12:04:41.125Z,94.93
2017-10-06T12:05:41.112Z,93.60
2017-10-06T12:06:41.104Z,94.93
2017-10-06T12:07:41.098Z,95.75
2017-10-06T12:08:41.090Z,94.89
2017-10-06T12:09:41.081Z,92.02
2017-10-06T12:10:41.077Z,92.79
2017-10-06T12:11:41.067Z,93.36
2017-10-06T12:12:41.060Z,92.50
2017-10-06T12:13:41.052Z,92.88
2017-10-06T12:14:41.048Z,92.40
2017-10-06T12:15:41.041Z,94.51
2017-10-06T12:16:41.032Z,94.51
2017-10-06T12:17:41.023Z,94.31
2017-10-06T12:18:41.017Z,94.70
2017-10-06T12:19:41.010Z,95.27
2017-10-06T12:20:41.003Z,94.41
2017-10-06T12:21:40.996Z,93.88
2017-10-06T12:22:40.994Z,93.60
2017-10-06T12:23:41.002Z,92.83
2017-10-06T12:24:40.993Z,89.29
2017-10-06T12:25:40.992Z,91.35
2017-10-06T12:26:40.976Z,88.86
2017-10-06T12:27:40.958Z,84.79
2017-10-06T12:28:40.952Z,86.99
2017-10-06T12:29:40.947Z,85.41
2017-10-06T12:30:40.939Z,87.80
2017-10-06T12:31:40.934Z,86.74
2017-10-06T12:32:40.929Z,86.65
2017-10-06T12:33:40.923Z,85.31
2017-10-06T12:34:40.919Z,84.83
2017-10-06T12:35:40.915Z,87.41
2017-10-06T12:36:40.915Z,85.41
2017-10-06T12:37:40.904Z,86.36
2017-10-06T12:38:40.898Z,84.59
2017-10-06T12:39:40.894Z,86.84
2017-10-06T12:40:40.893Z,87.66
2017-10-06T12:41:40.884Z,86.04
2017-10-06T12:42:40.879Z,84.98
2017-10-06T12:43:40.877Z,86.90
2017-10-06T12:44:40.869Z,88.47
2017-10-06T12:45:40.867Z,85.50
2017-10-06T12:46:40.860Z,85.41
2017-10-06T12:47:40.854Z,86.61
2017-10-06T12:48:40.856Z,85.27
2017-10-06T12:49:40.846Z,86.61
2017-10-06T12:50:40.841Z,88.09
2017-10-06T12:51:40.838Z,88.47
2017-10-06T12:52:40.835Z,87.90